sensor_id;sensor_type;location;lat;lon;timestamp;P1;durP1;ratioP1;P2;durP2;ratioP2
51925;SDS011;37952;51.938;15.480;2022-07-29T00:00:01;3.70;;;0.90;;
51925;SDS011;37952;51.938;15.480;2022-07-29T00:03:25;2.40;;;0.80;;
51925;SDS011;37952;51.938;15.480;2022-07-29T00:06:28;3.70;;;0.80;;
51925;SDS011;37952;51.938;15.480;2022-07-29T00:09:31;1.10;;;0.90;;
51925;SDS011;37952;51.938;15.480;2022-07-29T00:12:43;2.80;;;0.90;;
51925;SDS011;37952;51.938;15.480;2022-07-29T00:15:46;1.60;;;1.00;;
51925;SDS011;37952;51.938;15.480;2022-07-29T00:18:49;2.00;;;1.10;;
51925;SDS011;37952;51.938;15.480;2022-07-29T00:21:52;2.60;;;1.10;;
51925;SDS011;37952;51.938;15.480;2022-07-29T00:24:55;2.00;;;0.80;;
51925;SDS011;37952;51.938;15.480;2022-07-29T00:27:58;4.90;;;1.20;;
51925;SDS011;37952;51.938;15.480;2022-07-29T00:31:01;5.10;;;0.70;;
51925;SDS011;37952;51.938;15.480;2022-07-29T00:34:04;1.50;;;0.90;;
51925;SDS011;37952;51.938;15.480;2022-07-29T00:37:08;2.70;;;1.30;;
51925;SDS011;37952;51.938;15.480;2022-07-29T00:40:12;4.00;;;1.40;;
51925;SDS011;37952;51.938;15.480;2022-07-29T00:43:15;1.90;;;1.50;;
51925;SDS011;37952;51.938;15.480;2022-07-29T00:46:19;4.40;;;1.70;;
51925;SDS011;37952;51.938;15.480;2022-07-29T00:49:22;3.00;;;1.60;;
51925;SDS011;37952;51.938;15.480;2022-07-29T00:52:25;2.60;;;1.60;;
51925;SDS011;37952;51.938;15.480;2022-07-29T00:55:29;3.30;;;1.50;;
51925;SDS011;37952;51.938;15.480;2022-07-29T00:58:33;6.00;;;1.40;;
51925;SDS011;37952;51.938;15.480;2022-07-29T01:01:38;7.80;;;1.50;;
51925;SDS011;37952;51.938;15.480;2022-07-29T01:04:41;1.60;;;1.00;;
51925;SDS011;37952;51.938;15.480;2022-07-29T01:07:51;1.80;;;0.90;;
51925;SDS011;37952;51.938;15.480;2022-07-29T01:10:56;2.80;;;1.00;;
51925;SDS011;37952;51.938;15.480;2022-07-29T01:14:00;4.10;;;0.80;;
51925;SDS011;37952;51.938;15.480;2022-07-29T01:17:06;1.00;;;0.80;;
51925;SDS011;37952;51.938;15.480;2022-07-29T01:26:57;0.90;;;0.90;;
51925;SDS011;37952;51.938;15.480;2022-07-29T01:30:05;1.80;;;1.00;;
51925;SDS011;37952;51.938;15.480;2022-07-29T01:33:11;2.40;;;0.90;;
51925;SDS011;37952;51.938;15.480;2022-07-29T01:36:49;1.50;;;1.00;;
51925;SDS011;37952;51.938;15.480;2022-07-29T01:39:57;2.70;;;0.80;;
51925;SDS011;37952;51.938;15.480;2022-07-29T01:43:11;1.40;;;0.80;;
51925;SDS011;37952;51.938;15.480;2022-07-29T01:46:25;2.50;;;1.00;;
51925;SDS011;37952;51.938;15.480;2022-07-29T01:49:35;1.20;;;1.00;;
51925;SDS011;37952;51.938;15.480;2022-07-29T01:52:43;6.90;;;1.20;;
51925;SDS011;37952;51.938;15.480;2022-07-29T01:55:52;3.10;;;1.00;;
51925;SDS011;37952;51.938;15.480;2022-07-29T01:59:01;3.30;;;0.90;;
51925;SDS011;37952;51.938;15.480;2022-07-29T02:02:07;2.30;;;0.60;;
51925;SDS011;37952;51.938;15.480;2022-07-29T02:05:13;2.60;;;1.20;;
51925;SDS011;37952;51.938;15.480;2022-07-29T02:08:18;7.20;;;1.00;;
51925;SDS011;37952;51.938;15.480;2022-07-29T02:11:23;1.60;;;1.00;;
51925;SDS011;37952;51.938;15.480;2022-07-29T02:14:26;2.30;;;0.90;;
51925;SDS011;37952;51.938;15.480;2022-07-29T02:18:18;3.60;;;1.10;;
51925;SDS011;37952;51.938;15.480;2022-07-29T02:21:07;3.20;;;1.20;;
51925;SDS011;37952;51.938;15.480;2022-07-29T02:24:17;5.30;;;1.20;;
51925;SDS011;37952;51.938;15.480;2022-07-29T02:27:21;4.70;;;1.00;;
51925;SDS011;37952;51.938;15.480;2022-07-29T02:30:26;5.00;;;1.10;;
51925;SDS011;37952;51.938;15.480;2022-07-29T02:33:31;3.50;;;1.00;;
51925;SDS011;37952;51.938;15.480;2022-07-29T02:36:35;1.70;;;1.10;;
51925;SDS011;37952;51.938;15.480;2022-07-29T02:39:40;3.40;;;1.00;;
51925;SDS011;37952;51.938;15.480;2022-07-29T02:45:51;10.00;;;1.20;;
51925;SDS011;37952;51.938;15.480;2022-07-29T02:49:13;3.80;;;1.10;;
51925;SDS011;37952;51.938;15.480;2022-07-29T02:52:26;1.40;;;0.90;;
51925;SDS011;37952;51.938;15.480;2022-07-29T02:55:37;2.60;;;1.10;;
51925;SDS011;37952;51.938;15.480;2022-07-29T02:58:49;2.60;;;0.80;;
51925;SDS011;37952;51.938;15.480;2022-07-29T03:01:58;2.90;;;1.10;;
51925;SDS011;37952;51.938;15.480;2022-07-29T03:08:30;1.70;;;1.10;;
51925;SDS011;37952;51.938;15.480;2022-07-29T03:11:34;1.60;;;1.00;;
51925;SDS011;37952;51.938;15.480;2022-07-29T03:14:51;1.70;;;1.30;;
51925;SDS011;37952;51.938;15.480;2022-07-29T03:17:55;3.30;;;1.10;;
51925;SDS011;37952;51.938;15.480;2022-07-29T03:21:00;2.50;;;1.20;;
51925;SDS011;37952;51.938;15.480;2022-07-29T03:24:03;3.90;;;1.50;;
51925;SDS011;37952;51.938;15.480;2022-07-29T03:27:11;1.20;;;1.10;;
51925;SDS011;37952;51.938;15.480;2022-07-29T03:30:15;2.70;;;1.30;;
51925;SDS011;37952;51.938;15.480;2022-07-29T03:33:23;1.90;;;1.10;;
51925;SDS011;37952;51.938;15.480;2022-07-29T03:36:26;7.60;;;1.50;;
51925;SDS011;37952;51.938;15.480;2022-07-29T03:43:04;2.60;;;1.70;;
51925;SDS011;37952;51.938;15.480;2022-07-29T03:50:11;4.50;;;1.40;;
51925;SDS011;37952;51.938;15.480;2022-07-29T03:53:16;3.80;;;1.10;;
51925;SDS011;37952;51.938;15.480;2022-07-29T03:56:21;6.00;;;1.70;;
51925;SDS011;37952;51.938;15.480;2022-07-29T03:59:26;2.90;;;1.40;;
51925;SDS011;37952;51.938;15.480;2022-07-29T04:02:30;2.90;;;1.40;;
51925;SDS011;37952;51.938;15.480;2022-07-29T04:05:34;1.30;;;1.00;;
51925;SDS011;37952;51.938;15.480;2022-07-29T04:12:47;5.20;;;1.40;;
51925;SDS011;37952;51.938;15.480;2022-07-29T04:15:50;2.80;;;1.70;;
51925;SDS011;37952;51.938;15.480;2022-07-29T04:18:53;3.30;;;1.60;;
51925;SDS011;37952;51.938;15.480;2022-07-29T04:21:58;3.50;;;1.30;;
51925;SDS011;37952;51.938;15.480;2022-07-29T04:25:02;6.10;;;2.00;;
51925;SDS011;37952;51.938;15.480;2022-07-29T04:28:06;3.80;;;2.00;;
51925;SDS011;37952;51.938;15.480;2022-07-29T04:31:10;4.70;;;1.60;;
51925;SDS011;37952;51.938;15.480;2022-07-29T04:34:14;3.00;;;1.70;;
51925;SDS011;37952;51.938;15.480;2022-07-29T04:37:18;5.60;;;1.90;;
51925;SDS011;37952;51.938;15.480;2022-07-29T04:40:21;1.50;;;1.40;;
51925;SDS011;37952;51.938;15.480;2022-07-29T04:43:25;2.40;;;1.50;;
51925;SDS011;37952;51.938;15.480;2022-07-29T04:46:29;1.70;;;1.60;;
51925;SDS011;37952;51.938;15.480;2022-07-29T04:49:32;1.90;;;1.50;;
51925;SDS011;37952;51.938;15.480;2022-07-29T04:52:35;3.10;;;1.40;;
51925;SDS011;37952;51.938;15.480;2022-07-29T04:55:46;5.20;;;2.00;;
51925;SDS011;37952;51.938;15.480;2022-07-29T04:58:49;2.70;;;1.50;;
51925;SDS011;37952;51.938;15.480;2022-07-29T05:01:54;2.30;;;1.30;;
51925;SDS011;37952;51.938;15.480;2022-07-29T05:05:01;1.60;;;1.40;;
51925;SDS011;37952;51.938;15.480;2022-07-29T05:11:38;1.30;;;1.20;;
51925;SDS011;37952;51.938;15.480;2022-07-29T05:14:45;3.00;;;1.40;;
51925;SDS011;37952;51.938;15.480;2022-07-29T05:17:58;1.10;;;1.00;;
51925;SDS011;37952;51.938;15.480;2022-07-29T05:21:21;2.30;;;1.20;;
51925;SDS011;37952;51.938;15.480;2022-07-29T05:24:25;5.20;;;1.50;;
51925;SDS011;37952;51.938;15.480;2022-07-29T05:27:36;1.10;;;1.00;;
51925;SDS011;37952;51.938;15.480;2022-07-29T05:30:39;4.90;;;1.00;;
51925;SDS011;37952;51.938;15.480;2022-07-29T05:33:46;9.50;;;1.20;;
51925;SDS011;37952;51.938;15.480;2022-07-29T05:36:50;1.40;;;1.30;;
51925;SDS011;37952;51.938;15.480;2022-07-29T05:39:57;6.10;;;1.40;;
51925;SDS011;37952;51.938;15.480;2022-07-29T05:43:06;2.60;;;1.30;;
51925;SDS011;37952;51.938;15.480;2022-07-29T05:46:13;3.90;;;1.40;;
51925;SDS011;37952;51.938;15.480;2022-07-29T05:49:19;4.90;;;1.20;;
51925;SDS011;37952;51.938;15.480;2022-07-29T05:52:29;6.40;;;1.70;;
51925;SDS011;37952;51.938;15.480;2022-07-29T05:55:34;2.00;;;1.40;;
51925;SDS011;37952;51.938;15.480;2022-07-29T05:58:49;3.00;;;1.60;;
51925;SDS011;37952;51.938;15.480;2022-07-29T06:01:58;4.00;;;1.50;;
51925;SDS011;37952;51.938;15.480;2022-07-29T06:05:03;6.40;;;1.40;;
51925;SDS011;37952;51.938;15.480;2022-07-29T06:08:21;2.40;;;1.60;;
51925;SDS011;37952;51.938;15.480;2022-07-29T06:11:29;2.40;;;1.60;;
51925;SDS011;37952;51.938;15.480;2022-07-29T06:14:33;3.90;;;1.30;;
51925;SDS011;37952;51.938;15.480;2022-07-29T06:17:35;6.70;;;1.60;;
51925;SDS011;37952;51.938;15.480;2022-07-29T06:20:58;2.80;;;2.00;;
51925;SDS011;37952;51.938;15.480;2022-07-29T06:24:02;4.10;;;1.60;;
51925;SDS011;37952;51.938;15.480;2022-07-29T06:27:05;2.40;;;1.70;;
51925;SDS011;37952;51.938;15.480;2022-07-29T06:30:08;2.00;;;1.80;;
51925;SDS011;37952;51.938;15.480;2022-07-29T06:33:15;5.20;;;1.70;;
51925;SDS011;37952;51.938;15.480;2022-07-29T06:36:19;2.80;;;1.60;;
51925;SDS011;37952;51.938;15.480;2022-07-29T06:39:24;5.90;;;1.90;;
51925;SDS011;37952;51.938;15.480;2022-07-29T06:42:27;4.90;;;1.60;;
51925;SDS011;37952;51.938;15.480;2022-07-29T06:45:33;2.60;;;1.70;;
51925;SDS011;37952;51.938;15.480;2022-07-29T06:48:38;2.90;;;1.90;;
51925;SDS011;37952;51.938;15.480;2022-07-29T06:51:45;5.40;;;2.10;;
51925;SDS011;37952;51.938;15.480;2022-07-29T06:54:49;3.50;;;1.70;;
51925;SDS011;37952;51.938;15.480;2022-07-29T06:57:52;3.90;;;1.70;;
51925;SDS011;37952;51.938;15.480;2022-07-29T07:00:55;3.00;;;2.00;;
51925;SDS011;37952;51.938;15.480;2022-07-29T07:03:59;3.30;;;1.60;;
51925;SDS011;37952;51.938;15.480;2022-07-29T07:07:02;4.10;;;1.80;;
51925;SDS011;37952;51.938;15.480;2022-07-29T07:10:06;7.90;;;1.80;;
51925;SDS011;37952;51.938;15.480;2022-07-29T07:13:10;2.40;;;1.90;;
51925;SDS011;37952;51.938;15.480;2022-07-29T07:16:13;3.90;;;1.60;;
51925;SDS011;37952;51.938;15.480;2022-07-29T07:19:17;3.10;;;1.90;;
51925;SDS011;37952;51.938;15.480;2022-07-29T07:22:21;5.00;;;1.60;;
51925;SDS011;37952;51.938;15.480;2022-07-29T07:25:24;4.50;;;1.90;;
51925;SDS011;37952;51.938;15.480;2022-07-29T07:28:28;5.60;;;1.90;;
51925;SDS011;37952;51.938;15.480;2022-07-29T07:31:31;9.10;;;2.10;;
51925;SDS011;37952;51.938;15.480;2022-07-29T07:34:35;2.10;;;1.80;;
51925;SDS011;37952;51.938;15.480;2022-07-29T07:37:40;3.60;;;2.00;;
51925;SDS011;37952;51.938;15.480;2022-07-29T07:40:43;9.80;;;2.00;;
51925;SDS011;37952;51.938;15.480;2022-07-29T07:43:48;3.40;;;1.80;;
51925;SDS011;37952;51.938;15.480;2022-07-29T07:46:52;2.60;;;1.70;;
51925;SDS011;37952;51.938;15.480;2022-07-29T07:49:56;4.30;;;1.60;;
51925;SDS011;37952;51.938;15.480;2022-07-29T07:52:59;5.90;;;1.90;;
51925;SDS011;37952;51.938;15.480;2022-07-29T07:56:04;2.20;;;1.60;;
51925;SDS011;37952;51.938;15.480;2022-07-29T07:59:14;8.00;;;1.80;;
51925;SDS011;37952;51.938;15.480;2022-07-29T08:02:17;2.70;;;1.40;;
51925;SDS011;37952;51.938;15.480;2022-07-29T08:05:20;8.50;;;1.60;;
51925;SDS011;37952;51.938;15.480;2022-07-29T08:08:23;5.20;;;1.90;;
51925;SDS011;37952;51.938;15.480;2022-07-29T08:11:26;2.60;;;1.50;;
51925;SDS011;37952;51.938;15.480;2022-07-29T08:14:36;3.40;;;1.80;;
51925;SDS011;37952;51.938;15.480;2022-07-29T08:17:39;4.50;;;1.80;;
51925;SDS011;37952;51.938;15.480;2022-07-29T08:20:44;7.50;;;1.70;;
51925;SDS011;37952;51.938;15.480;2022-07-29T08:23:47;3.00;;;1.70;;
51925;SDS011;37952;51.938;15.480;2022-07-29T08:27:03;2.90;;;1.70;;
51925;SDS011;37952;51.938;15.480;2022-07-29T08:30:27;5.00;;;1.20;;
51925;SDS011;37952;51.938;15.480;2022-07-29T08:33:30;4.30;;;1.40;;
51925;SDS011;37952;51.938;15.480;2022-07-29T08:36:36;1.50;;;1.40;;
51925;SDS011;37952;51.938;15.480;2022-07-29T08:39:40;4.80;;;1.70;;
51925;SDS011;37952;51.938;15.480;2022-07-29T08:42:44;2.00;;;1.20;;
51925;SDS011;37952;51.938;15.480;2022-07-29T08:45:48;5.00;;;1.50;;
51925;SDS011;37952;51.938;15.480;2022-07-29T08:48:53;1.50;;;1.10;;
51925;SDS011;37952;51.938;15.480;2022-07-29T08:51:58;1.90;;;0.90;;
51925;SDS011;37952;51.938;15.480;2022-07-29T08:55:02;1.60;;;1.50;;
51925;SDS011;37952;51.938;15.480;2022-07-29T08:58:07;2.40;;;1.50;;
51925;SDS011;37952;51.938;15.480;2022-07-29T09:01:16;6.10;;;1.30;;
51925;SDS011;37952;51.938;15.480;2022-07-29T09:04:23;1.70;;;1.10;;
51925;SDS011;37952;51.938;15.480;2022-07-29T09:07:30;2.40;;;1.20;;
51925;SDS011;37952;51.938;15.480;2022-07-29T09:10:36;2.20;;;1.50;;
51925;SDS011;37952;51.938;15.480;2022-07-29T09:13:39;2.30;;;1.20;;
51925;SDS011;37952;51.938;15.480;2022-07-29T09:17:01;2.70;;;1.10;;
51925;SDS011;37952;51.938;15.480;2022-07-29T09:20:11;1.80;;;1.30;;
51925;SDS011;37952;51.938;15.480;2022-07-29T09:23:16;1.40;;;1.20;;
51925;SDS011;37952;51.938;15.480;2022-07-29T09:26:29;4.20;;;1.30;;
51925;SDS011;37952;51.938;15.480;2022-07-29T09:29:33;4.30;;;1.10;;
51925;SDS011;37952;51.938;15.480;2022-07-29T09:36:04;1.10;;;1.00;;
51925;SDS011;37952;51.938;15.480;2022-07-29T09:39:10;2.80;;;1.60;;
51925;SDS011;37952;51.938;15.480;2022-07-29T09:42:14;1.70;;;1.50;;
51925;SDS011;37952;51.938;15.480;2022-07-29T09:45:31;1.00;;;0.90;;
51925;SDS011;37952;51.938;15.480;2022-07-29T09:48:36;3.70;;;0.90;;
51925;SDS011;37952;51.938;15.480;2022-07-29T09:51:39;1.20;;;1.10;;
51925;SDS011;37952;51.938;15.480;2022-07-29T09:54:43;2.60;;;1.20;;
51925;SDS011;37952;51.938;15.480;2022-07-29T09:57:47;2.20;;;1.20;;
51925;SDS011;37952;51.938;15.480;2022-07-29T10:00:50;3.30;;;1.20;;
51925;SDS011;37952;51.938;15.480;2022-07-29T10:03:54;1.50;;;0.90;;
51925;SDS011;37952;51.938;15.480;2022-07-29T10:06:58;3.00;;;1.30;;
51925;SDS011;37952;51.938;15.480;2022-07-29T10:10:06;1.40;;;1.30;;
51925;SDS011;37952;51.938;15.480;2022-07-29T10:13:11;1.40;;;1.20;;
51925;SDS011;37952;51.938;15.480;2022-07-29T10:16:18;1.60;;;1.00;;
51925;SDS011;37952;51.938;15.480;2022-07-29T10:19:21;1.60;;;1.20;;
51925;SDS011;37952;51.938;15.480;2022-07-29T10:22:26;2.10;;;1.10;;
51925;SDS011;37952;51.938;15.480;2022-07-29T10:25:49;1.50;;;1.10;;
51925;SDS011;37952;51.938;15.480;2022-07-29T10:28:52;1.10;;;1.00;;
51925;SDS011;37952;51.938;15.480;2022-07-29T10:32:07;1.20;;;1.10;;
51925;SDS011;37952;51.938;15.480;2022-07-29T10:39:04;1.40;;;1.10;;
51925;SDS011;37952;51.938;15.480;2022-07-29T10:42:24;5.80;;;1.10;;
51925;SDS011;37952;51.938;15.480;2022-07-29T10:45:35;1.00;;;1.00;;
51925;SDS011;37952;51.938;15.480;2022-07-29T10:52:19;4.40;;;1.20;;
51925;SDS011;37952;51.938;15.480;2022-07-29T10:55:32;1.30;;;1.00;;
51925;SDS011;37952;51.938;15.480;2022-07-29T10:58:45;2.50;;;1.00;;
51925;SDS011;37952;51.938;15.480;2022-07-29T11:05:51;1.50;;;0.80;;
51925;SDS011;37952;51.938;15.480;2022-07-29T11:09:17;5.90;;;1.00;;
51925;SDS011;37952;51.938;15.480;2022-07-29T11:15:53;3.00;;;1.10;;
51925;SDS011;37952;51.938;15.480;2022-07-29T11:22:35;1.70;;;1.00;;
51925;SDS011;37952;51.938;15.480;2022-07-29T11:29:24;0.80;;;0.80;;
51925;SDS011;37952;51.938;15.480;2022-07-29T11:32:35;1.10;;;0.80;;
51925;SDS011;37952;51.938;15.480;2022-07-29T11:35:40;1.30;;;1.00;;
51925;SDS011;37952;51.938;15.480;2022-07-29T11:42:47;1.10;;;0.90;;
51925;SDS011;37952;51.938;15.480;2022-07-29T11:45:53;3.10;;;1.10;;
51925;SDS011;37952;51.938;15.480;2022-07-29T11:48:56;3.50;;;0.80;;
51925;SDS011;37952;51.938;15.480;2022-07-29T11:52:01;1.30;;;0.80;;
51925;SDS011;37952;51.938;15.480;2022-07-29T11:55:06;0.70;;;0.70;;
51925;SDS011;37952;51.938;15.480;2022-07-29T11:58:12;1.50;;;0.90;;
51925;SDS011;37952;51.938;15.480;2022-07-29T12:01:19;1.10;;;1.00;;
51925;SDS011;37952;51.938;15.480;2022-07-29T12:04:24;3.00;;;0.60;;
51925;SDS011;37952;51.938;15.480;2022-07-29T12:07:27;0.70;;;0.70;;
51925;SDS011;37952;51.938;15.480;2022-07-29T12:10:37;2.20;;;1.00;;
51925;SDS011;37952;51.938;15.480;2022-07-29T12:13:40;3.10;;;0.70;;
51925;SDS011;37952;51.938;15.480;2022-07-29T12:16:43;0.70;;;0.70;;
51925;SDS011;37952;51.938;15.480;2022-07-29T12:19:47;1.10;;;0.60;;
51925;SDS011;37952;51.938;15.480;2022-07-29T12:22:52;1.10;;;0.80;;
51925;SDS011;37952;51.938;15.480;2022-07-29T12:25:57;3.00;;;0.60;;
51925;SDS011;37952;51.938;15.480;2022-07-29T12:29:01;1.00;;;0.70;;
51925;SDS011;37952;51.938;15.480;2022-07-29T12:32:05;2.10;;;0.80;;
51925;SDS011;37952;51.938;15.480;2022-07-29T12:35:21;1.60;;;1.00;;
51925;SDS011;37952;51.938;15.480;2022-07-29T12:38:24;1.00;;;0.80;;
51925;SDS011;37952;51.938;15.480;2022-07-29T12:41:28;1.50;;;0.60;;
51925;SDS011;37952;51.938;15.480;2022-07-29T12:44:48;1.30;;;0.60;;
51925;SDS011;37952;51.938;15.480;2022-07-29T12:47:52;0.90;;;0.60;;
51925;SDS011;37952;51.938;15.480;2022-07-29T12:50:57;0.80;;;0.80;;
51925;SDS011;37952;51.938;15.480;2022-07-29T12:54:03;3.00;;;0.90;;
51925;SDS011;37952;51.938;15.480;2022-07-29T12:57:06;0.50;;;0.50;;
51925;SDS011;37952;51.938;15.480;2022-07-29T13:00:22;3.30;;;0.70;;
51925;SDS011;37952;51.938;15.480;2022-07-29T13:03:26;1.90;;;0.50;;
51925;SDS011;37952;51.938;15.480;2022-07-29T13:06:40;2.00;;;0.70;;
51925;SDS011;37952;51.938;15.480;2022-07-29T13:09:52;2.70;;;0.60;;
51925;SDS011;37952;51.938;15.480;2022-07-29T13:16:05;3.60;;;0.70;;
51925;SDS011;37952;51.938;15.480;2022-07-29T13:19:10;1.10;;;0.80;;
51925;SDS011;37952;51.938;15.480;2022-07-29T13:22:15;0.70;;;0.70;;
51925;SDS011;37952;51.938;15.480;2022-07-29T13:25:24;1.30;;;0.80;;
51925;SDS011;37952;51.938;15.480;2022-07-29T13:28:28;0.90;;;0.70;;
51925;SDS011;37952;51.938;15.480;2022-07-29T13:31:32;0.80;;;0.60;;
51925;SDS011;37952;51.938;15.480;2022-07-29T13:34:35;2.30;;;0.60;;
51925;SDS011;37952;51.938;15.480;2022-07-29T13:37:38;2.40;;;0.70;;
51925;SDS011;37952;51.938;15.480;2022-07-29T13:40:41;0.80;;;0.70;;
51925;SDS011;37952;51.938;15.480;2022-07-29T13:43:44;3.10;;;0.70;;
51925;SDS011;37952;51.938;15.480;2022-07-29T13:46:51;1.10;;;0.70;;
51925;SDS011;37952;51.938;15.480;2022-07-29T13:49:54;2.30;;;0.70;;
51925;SDS011;37952;51.938;15.480;2022-07-29T13:52:57;2.10;;;0.60;;
51925;SDS011;37952;51.938;15.480;2022-07-29T13:56:00;1.40;;;0.70;;
51925;SDS011;37952;51.938;15.480;2022-07-29T13:59:03;2.70;;;0.70;;
51925;SDS011;37952;51.938;15.480;2022-07-29T14:02:07;2.80;;;0.70;;
51925;SDS011;37952;51.938;15.480;2022-07-29T14:05:11;1.10;;;0.50;;
51925;SDS011;37952;51.938;15.480;2022-07-29T14:08:14;1.60;;;0.60;;
51925;SDS011;37952;51.938;15.480;2022-07-29T14:11:17;0.70;;;0.50;;
51925;SDS011;37952;51.938;15.480;2022-07-29T14:14:20;0.40;;;0.40;;
51925;SDS011;37952;51.938;15.480;2022-07-29T14:17:23;1.10;;;0.70;;
51925;SDS011;37952;51.938;15.480;2022-07-29T14:20:26;0.50;;;0.50;;
51925;SDS011;37952;51.938;15.480;2022-07-29T14:23:32;3.70;;;0.70;;
51925;SDS011;37952;51.938;15.480;2022-07-29T14:26:35;3.80;;;0.70;;
51925;SDS011;37952;51.938;15.480;2022-07-29T14:29:38;0.60;;;0.60;;
51925;SDS011;37952;51.938;15.480;2022-07-29T14:32:41;0.90;;;0.50;;
51925;SDS011;37952;51.938;15.480;2022-07-29T14:35:47;1.00;;;0.60;;
51925;SDS011;37952;51.938;15.480;2022-07-29T14:38:50;1.20;;;0.70;;
51925;SDS011;37952;51.938;15.480;2022-07-29T14:41:53;1.80;;;0.70;;
51925;SDS011;37952;51.938;15.480;2022-07-29T14:45:06;2.70;;;0.70;;
51925;SDS011;37952;51.938;15.480;2022-07-29T14:48:11;0.90;;;0.60;;
51925;SDS011;37952;51.938;15.480;2022-07-29T14:51:14;13.40;;;0.70;;
51925;SDS011;37952;51.938;15.480;2022-07-29T14:54:17;5.80;;;0.70;;
51925;SDS011;37952;51.938;15.480;2022-07-29T14:57:21;3.60;;;0.80;;
51925;SDS011;37952;51.938;15.480;2022-07-29T15:00:24;2.90;;;0.80;;
51925;SDS011;37952;51.938;15.480;2022-07-29T15:03:28;0.70;;;0.70;;
51925;SDS011;37952;51.938;15.480;2022-07-29T15:06:35;1.30;;;0.80;;
51925;SDS011;37952;51.938;15.480;2022-07-29T15:09:39;1.40;;;0.80;;
51925;SDS011;37952;51.938;15.480;2022-07-29T15:12:51;2.90;;;0.60;;
51925;SDS011;37952;51.938;15.480;2022-07-29T15:15:55;1.50;;;0.60;;
51925;SDS011;37952;51.938;15.480;2022-07-29T15:19:02;0.70;;;0.70;;
51925;SDS011;37952;51.938;15.480;2022-07-29T15:22:10;1.30;;;0.60;;
51925;SDS011;37952;51.938;15.480;2022-07-29T15:25:17;11.30;;;0.90;;
51925;SDS011;37952;51.938;15.480;2022-07-29T15:28:21;8.10;;;0.60;;
51925;SDS011;37952;51.938;15.480;2022-07-29T15:31:33;3.60;;;0.60;;
51925;SDS011;37952;51.938;15.480;2022-07-29T15:34:40;0.90;;;0.60;;
51925;SDS011;37952;51.938;15.480;2022-07-29T15:37:43;1.10;;;0.60;;
51925;SDS011;37952;51.938;15.480;2022-07-29T15:40:54;1.30;;;0.60;;
51925;SDS011;37952;51.938;15.480;2022-07-29T15:44:01;6.20;;;0.50;;
51925;SDS011;37952;51.938;15.480;2022-07-29T15:47:06;1.10;;;0.60;;
51925;SDS011;37952;51.938;15.480;2022-07-29T15:50:09;0.80;;;0.60;;
51925;SDS011;37952;51.938;15.480;2022-07-29T15:53:17;1.90;;;0.60;;
51925;SDS011;37952;51.938;15.480;2022-07-29T15:56:23;1.10;;;0.50;;
51925;SDS011;37952;51.938;15.480;2022-07-29T15:59:27;4.00;;;0.70;;
51925;SDS011;37952;51.938;15.480;2022-07-29T16:02:30;0.90;;;0.70;;
51925;SDS011;37952;51.938;15.480;2022-07-29T16:05:37;4.40;;;1.10;;
51925;SDS011;37952;51.938;15.480;2022-07-29T16:08:40;5.90;;;0.80;;
51925;SDS011;37952;51.938;15.480;2022-07-29T16:11:44;0.80;;;0.80;;
51925;SDS011;37952;51.938;15.480;2022-07-29T16:14:48;3.30;;;0.80;;
51925;SDS011;37952;51.938;15.480;2022-07-29T16:17:53;2.30;;;0.70;;
51925;SDS011;37952;51.938;15.480;2022-07-29T16:20:56;0.90;;;0.70;;
51925;SDS011;37952;51.938;15.480;2022-07-29T16:24:00;5.80;;;0.90;;
51925;SDS011;37952;51.938;15.480;2022-07-29T16:27:03;1.00;;;0.80;;
51925;SDS011;37952;51.938;15.480;2022-07-29T16:30:07;0.80;;;0.80;;
51925;SDS011;37952;51.938;15.480;2022-07-29T16:33:13;0.70;;;0.70;;
51925;SDS011;37952;51.938;15.480;2022-07-29T16:36:17;0.80;;;0.70;;
51925;SDS011;37952;51.938;15.480;2022-07-29T16:39:21;0.70;;;0.70;;
51925;SDS011;37952;51.938;15.480;2022-07-29T16:42:24;8.80;;;0.80;;
51925;SDS011;37952;51.938;15.480;2022-07-29T16:45:48;4.40;;;0.60;;
51925;SDS011;37952;51.938;15.480;2022-07-29T16:48:52;2.50;;;0.90;;
51925;SDS011;37952;51.938;15.480;2022-07-29T16:52:01;2.20;;;0.90;;
51925;SDS011;37952;51.938;15.480;2022-07-29T16:55:08;3.10;;;0.80;;
51925;SDS011;37952;51.938;15.480;2022-07-29T16:58:11;1.10;;;1.00;;
51925;SDS011;37952;51.938;15.480;2022-07-29T17:01:14;5.90;;;0.80;;
51925;SDS011;37952;51.938;15.480;2022-07-29T17:04:19;1.20;;;0.80;;
51925;SDS011;37952;51.938;15.480;2022-07-29T17:07:39;1.10;;;0.90;;
51925;SDS011;37952;51.938;15.480;2022-07-29T17:10:44;4.00;;;0.80;;
51925;SDS011;37952;51.938;15.480;2022-07-29T17:13:47;0.80;;;0.70;;
51925;SDS011;37952;51.938;15.480;2022-07-29T17:16:52;2.40;;;1.10;;
51925;SDS011;37952;51.938;15.480;2022-07-29T17:20:15;1.40;;;0.80;;
51925;SDS011;37952;51.938;15.480;2022-07-29T17:23:19;6.80;;;0.90;;
51925;SDS011;37952;51.938;15.480;2022-07-29T17:26:24;4.10;;;0.80;;
51925;SDS011;37952;51.938;15.480;2022-07-29T17:29:32;10.00;;;1.00;;
51925;SDS011;37952;51.938;15.480;2022-07-29T17:32:38;1.20;;;0.90;;
51925;SDS011;37952;51.938;15.480;2022-07-29T17:35:46;0.80;;;0.70;;
51925;SDS011;37952;51.938;15.480;2022-07-29T17:39:11;0.70;;;0.70;;
51925;SDS011;37952;51.938;15.480;2022-07-29T17:42:14;1.50;;;0.70;;
51925;SDS011;37952;51.938;15.480;2022-07-29T17:45:20;3.20;;;0.80;;
51925;SDS011;37952;51.938;15.480;2022-07-29T17:48:23;0.80;;;0.70;;
51925;SDS011;37952;51.938;15.480;2022-07-29T17:51:30;0.90;;;0.80;;
51925;SDS011;37952;51.938;15.480;2022-07-29T17:54:36;0.80;;;0.80;;
51925;SDS011;37952;51.938;15.480;2022-07-29T17:57:41;2.10;;;0.90;;
51925;SDS011;37952;51.938;15.480;2022-07-29T18:03:53;1.60;;;0.70;;
51925;SDS011;37952;51.938;15.480;2022-07-29T18:07:02;0.80;;;0.70;;
51925;SDS011;37952;51.938;15.480;2022-07-29T18:10:13;4.40;;;0.80;;
51925;SDS011;37952;51.938;15.480;2022-07-29T18:13:24;2.10;;;0.90;;
51925;SDS011;37952;51.938;15.480;2022-07-29T18:16:33;1.70;;;0.90;;
51925;SDS011;37952;51.938;15.480;2022-07-29T18:19:37;0.80;;;0.80;;
51925;SDS011;37952;51.938;15.480;2022-07-29T18:22:48;0.70;;;0.70;;
51925;SDS011;37952;51.938;15.480;2022-07-29T18:25:51;1.30;;;0.90;;
51925;SDS011;37952;51.938;15.480;2022-07-29T18:29:01;3.00;;;0.90;;
51925;SDS011;37952;51.938;15.480;2022-07-29T18:32:04;4.00;;;0.90;;
51925;SDS011;37952;51.938;15.480;2022-07-29T18:35:08;0.70;;;0.70;;
51925;SDS011;37952;51.938;15.480;2022-07-29T18:38:12;1.80;;;0.80;;
51925;SDS011;37952;51.938;15.480;2022-07-29T18:41:15;1.50;;;0.90;;
51925;SDS011;37952;51.938;15.480;2022-07-29T18:44:24;3.90;;;0.80;;
51925;SDS011;37952;51.938;15.480;2022-07-29T18:47:27;0.70;;;0.70;;
51925;SDS011;37952;51.938;15.480;2022-07-29T18:50:34;5.00;;;0.80;;
51925;SDS011;37952;51.938;15.480;2022-07-29T18:53:37;0.90;;;0.80;;
51925;SDS011;37952;51.938;15.480;2022-07-29T18:56:40;0.60;;;0.60;;
51925;SDS011;37952;51.938;15.480;2022-07-29T18:59:44;4.50;;;0.90;;
51925;SDS011;37952;51.938;15.480;2022-07-29T19:02:47;2.00;;;0.80;;
51925;SDS011;37952;51.938;15.480;2022-07-29T19:05:50;1.20;;;0.90;;
51925;SDS011;37952;51.938;15.480;2022-07-29T19:08:53;2.00;;;0.80;;
51925;SDS011;37952;51.938;15.480;2022-07-29T19:11:56;3.20;;;0.80;;
51925;SDS011;37952;51.938;15.480;2022-07-29T19:15:05;0.60;;;0.60;;
51925;SDS011;37952;51.938;15.480;2022-07-29T19:18:09;3.80;;;0.80;;
51925;SDS011;37952;51.938;15.480;2022-07-29T19:21:14;1.70;;;0.70;;
51925;SDS011;37952;51.938;15.480;2022-07-29T19:24:18;1.50;;;0.70;;
51925;SDS011;37952;51.938;15.480;2022-07-29T19:27:22;5.40;;;0.70;;